Time;durP1;ratioP1;P1;durP2;ratioP2;P2;SDS_P1;SDS_P2;PMS_P1;PMS_P2;Temp;Humidity;BMP_temperature;BMP_pressure;BME280_temperature;BME280_humidity;BME280_pressure;Samples;Min_cycle;Max_cycle;Signal;HPM_P1;HPM_P2
2022/03/09 00:01:36;;;;;;;26.75;17.85;;;3.00;99.90;;;;;;4950898;29;20206;-85
2022/03/09 00:04:06;;;;;;;30.20;19.10;;;3.20;99.90;;;;;;4952407;29;20250;-85
2022/03/09 00:06:33;;;;;;;29.00;19.35;;;3.10;99.90;;;;;;4951062;29;20219;-86
2022/03/09 00:09:00;;;;;;;27.95;19.63;;;2.90;99.90;;;;;;4946175;29;20219;-84
2022/03/09 00:11:27;;;;;;;31.55;19.88;;;2.90;99.90;;;;;;4952283;29;20266;-86
2022/03/09 00:13:53;;;;;;;22.58;17.70;;;3.00;99.90;;;;;;4950931;29;20234;-86
2022/03/09 00:16:21;;;;;;;26.15;17.52;;;2.70;99.90;;;;;;4949769;29;20211;-85
2022/03/09 00:18:49;;;;;;;26.60;18.27;;;2.90;99.90;;;;;;4948957;29;20211;-85
2022/03/09 00:21:27;;;;;;;28.50;18.42;;;2.90;99.90;;;;;;4950062;29;20250;-87
2022/03/09 00:23:58;;;;;;;24.80;18.52;;;2.90;99.90;;;;;;4949209;29;20218;-85
2022/03/09 00:26:27;;;;;;;29.40;18.98;;;2.80;99.90;;;;;;4948864;29;20194;-85
2022/03/09 00:28:57;;;;;;;26.98;17.30;;;2.70;99.90;;;;;;4948660;29;20238;-85
2022/03/09 00:31:24;;;;;;;25.10;17.33;;;2.70;99.90;;;;;;4948800;29;20217;-85
2022/03/09 00:33:52;;;;;;;26.10;17.02;;;2.60;99.90;;;;;;4950434;29;20230;-85
2022/03/09 00:36:22;;;;;;;26.13;16.67;;;2.60;99.90;;;;;;4957851;28;20190;-86
2022/03/09 00:39:09;;;;;;;24.10;17.27;;;2.60;99.90;;;;;;4959959;28;20317;-84
2022/03/09 00:41:38;;;;;;;23.05;16.02;;;2.50;99.90;;;;;;4959864;28;20199;-85
2022/03/09 00:44:11;;;;;;;22.65;17.27;;;2.20;99.90;;;;;;4958594;29;20235;-84
2022/03/09 00:46:39;;;;;;;26.88;17.92;;;;;;;;;;4957410;29;20188;-85
2022/03/09 00:49:16;;;;;;;28.88;17.08;;;2.40;99.90;;;;;;4955919;29;20231;-85
2022/03/09 00:51:44;;;;;;;23.40;16.30;;;;;;;;;;4954408;29;20191;-85
2022/03/09 00:54:38;;;;;;;23.08;17.02;;;2.50;99.90;;;;;;4949753;29;20360;-85
2022/03/09 00:57:22;;;;;;;24.38;17.30;;;2.50;99.90;;;;;;4949942;29;20213;-85
2022/03/09 00:59:51;;;;;;;23.35;17.23;;;2.50;99.90;;;;;;4949843;29;20206;-85
2022/03/09 01:02:19;;;;;;;21.60;16.20;;;;;;;;;;4949310;29;20210;-85
2022/03/09 01:04:51;;;;;;;23.70;15.63;;;2.50;99.90;;;;;;4948864;29;20238;-85
2022/03/09 01:07:18;;;;;;;23.58;16.65;;;;;;;;;;4948142;29;20279;-85
2022/03/09 01:09:53;;;;;;;25.98;15.30;;;2.40;99.90;;;;;;4948882;29;20213;-85
2022/03/09 01:12:32;;;;;;;21.45;15.00;;;2.60;99.90;;;;;;4950477;29;20202;-85
2022/03/09 01:15:01;;;;;;;23.05;17.08;;;2.00;99.90;;;;;;4949975;29;20270;-85
2022/03/09 01:17:33;;;;;;;23.27;15.82;;;;;;;;;;4948196;29;20242;-85
2022/03/09 01:20:01;;;;;;;20.70;16.48;;;2.50;99.90;;;;;;4947682;29;20266;-86
2022/03/09 01:22:28;;;;;;;21.20;15.50;;;1.70;99.90;;;;;;4951039;29;20215;-86
2022/03/09 01:24:58;;;;;;;25.17;17.23;;;2.30;99.90;;;;;;4951249;29;20227;-86
2022/03/09 01:27:27;;;;;;;20.50;14.90;;;2.30;99.90;;;;;;4949599;29;20211;-86
2022/03/09 01:29:57;;;;;;;23.50;16.60;;;2.70;99.90;;;;;;4947218;29;20235;-86
2022/03/09 01:32:36;;;;;;;25.77;16.17;;;;;;;;;;4948067;29;20210;-86
2022/03/09 01:35:12;;;;;;;26.20;15.00;;;2.10;99.90;;;;;;4947877;29;20289;-86
2022/03/09 01:37:41;;;;;;;28.60;17.80;;;2.10;99.90;;;;;;4956990;29;20187;-86
2022/03/09 01:40:13;;;;;;;24.90;17.70;;;2.00;99.90;;;;;;4958794;28;20201;-85
2022/03/09 01:42:48;;;;;;;20.70;15.88;;;2.00;99.90;;;;;;4946804;29;20202;-86
2022/03/09 01:45:18;;;;;;;29.30;17.95;;;2.10;99.90;;;;;;4941619;29;20189;-85
2022/03/09 01:47:45;;;;;;;31.88;16.02;;;;;;;;;;4946372;29;20313;-86
2022/03/09 01:50:14;;;;;;;25.63;17.23;;;2.00;99.90;;;;;;4947235;29;20354;-86
2022/03/09 01:52:43;;;;;;;29.17;18.45;;;2.10;99.90;;;;;;4949396;29;20623;-88
2022/03/09 01:55:11;;;;;;;31.58;20.33;;;2.10;99.90;;;;;;4947567;29;20254;-86
2022/03/09 01:57:40;;;;;;;32.53;21.60;;;;;;;;;;4946773;29;20211;-86
2022/03/09 02:00:11;;;;;;;34.65;21.73;;;1.90;99.90;;;;;;4956048;29;20211;-85
2022/03/09 02:02:40;;;;;;;33.00;24.23;;;;;;;;;;4961373;29;20202;-86
2022/03/09 02:05:09;;;;;;;31.25;22.77;;;2.20;99.90;;;;;;4960569;29;20239;-85
2022/03/09 02:10:24;;;;;;;35.92;22.13;;;1.90;99.90;;;;;;4960833;28;20191;-85
2022/03/09 02:12:54;;;;;;;33.95;23.88;;;1.90;99.90;;;;;;4961487;29;20287;-85
2022/03/09 02:15:21;;;;;;;34.72;23.75;;;;;;;;;;4960575;29;20197;-85
2022/03/09 02:17:50;;;;;;;38.08;24.98;;;;;;;;;;4957152;29;20293;-86
2022/03/09 02:20:17;;;;;;;35.65;23.88;;;;;;;;;;4951085;29;20207;-86
2022/03/09 02:22:46;;;;;;;38.67;24.10;;;1.80;99.90;;;;;;4958783;28;20191;-86
2022/03/09 02:25:17;;;;;;;35.35;23.80;;;1.80;99.90;;;;;;4962832;28;20195;-85
2022/03/09 02:27:45;;;;;;;31.40;23.13;;;1.80;99.90;;;;;;4962695;28;20218;-85
2022/03/09 02:30:14;;;;;;;36.40;23.35;;;1.90;99.90;;;;;;4957701;28;20231;-85
2022/03/09 02:32:41;;;;;;;27.08;22.70;;;1.90;99.90;;;;;;4953349;29;20282;-86
2022/03/09 02:35:11;;;;;;;34.42;22.88;;;2.10;99.90;;;;;;4958301;28;20222;-85
2022/03/09 02:37:41;;;;;;;35.67;24.15;;;2.10;99.90;;;;;;4962583;28;20191;-85
2022/03/09 02:40:12;;;;;;;38.03;21.35;;;1.90;99.90;;;;;;4959881;28;20217;-86
2022/03/09 02:42:39;;;;;;;33.33;22.52;;;;;;;;;;4950590;29;20203;-86
2022/03/09 02:45:09;;;;;;;30.40;20.45;;;1.80;99.90;;;;;;4950237;29;20305;-85
2022/03/09 02:47:42;;;;;;;29.98;20.30;;;1.60;99.90;;;;;;4949909;29;20278;-85
2022/03/09 02:50:09;;;;;;;31.40;22.48;;;1.30;99.90;;;;;;4949848;29;20256;-85
2022/03/09 02:52:41;;;;;;;30.15;22.05;;;1.40;99.90;;;;;;4948650;29;20290;-86
2022/03/09 02:55:13;;;;;;;30.90;22.63;;;1.30;99.90;;;;;;4949625;29;20293;-86
2022/03/09 02:57:46;;;;;;;33.45;22.52;;;1.50;99.90;;;;;;4949842;29;20188;-86
2022/03/09 03:00:13;;;;;;;39.83;23.92;;;3.30;99.90;;;;;;4948994;29;20223;-86
2022/03/09 03:02:43;;;;;;;36.20;22.58;;;1.60;99.90;;;;;;4948472;29;20678;-86
2022/03/09 03:05:10;;;;;;;28.75;22.38;;;1.70;99.90;;;;;;4949065;29;20210;-86
2022/03/09 03:07:38;;;;;;;36.63;23.67;;;0.20;99.90;;;;;;4948557;29;20207;-86
2022/03/09 03:10:08;;;;;;;40.40;23.10;;;0.40;99.90;;;;;;4948746;29;20704;-86
2022/03/09 03:12:47;;;;;;;31.38;21.83;;;1.50;99.90;;;;;;4948045;29;20568;-85
2022/03/09 03:15:14;;;;;;;31.33;21.42;;;;;;;;;;4949107;29;20211;-86
2022/03/09 03:17:41;;;;;;;30.83;19.77;;;;;;;;;;4951127;29;20210;-86
2022/03/09 03:20:10;;;;;;;30.65;21.70;;;2.10;99.90;;;;;;4950030;29;20689;-86
2022/03/09 03:22:38;;;;;;;31.35;23.50;;;;;;;;;;4950654;29;20202;-85
2022/03/09 03:25:07;;;;;;;33.08;21.88;;;;;;;;;;4949092;29;20199;-86
2022/03/09 03:27:35;;;;;;;33.60;23.98;;;1.30;99.90;;;;;;4948398;29;20239;-86
2022/03/09 03:30:04;;;;;;;32.35;23.20;;;1.30;99.90;;;;;;4947909;29;20690;-86
2022/03/09 03:32:34;;;;;;;28.13;21.52;;;;;;;;;;4947739;29;20211;-86
2022/03/09 03:35:01;;;;;;;31.80;22.30;;;;;;;;;;4947707;29;20203;-86
2022/03/09 03:37:32;;;;;;;35.30;22.38;;;;;;;;;;4947850;29;20755;-86
2022/03/09 03:40:01;;;;;;;36.83;23.98;;;1.00;99.90;;;;;;4948207;29;20198;-86
2022/03/09 03:42:30;;;;;;;34.50;23.80;;;1.30;99.90;;;;;;4947543;29;20211;-86
2022/03/09 03:45:05;;;;;;;30.05;22.60;;;1.30;99.90;;;;;;4951659;29;20211;-86
2022/03/09 03:47:35;;;;;;;30.55;22.58;;;1.20;99.90;;;;;;4959116;28;20202;-87
2022/03/09 03:50:02;;;;;;;33.10;21.08;;;;;;;;;;4960816;28;20211;-86
2022/03/09 03:52:36;;;;;;;35.22;23.45;;;1.40;99.90;;;;;;4959758;28;20201;-85
2022/03/09 03:55:03;;;;;;;31.48;22.20;;;2.00;99.90;;;;;;4961125;28;20186;-87
2022/03/09 03:57:41;;;;;;;28.52;20.20;;;1.50;99.90;;;;;;4959792;29;20211;-86
2022/03/09 04:00:13;;;;;;;25.67;18.25;;;1.00;99.90;;;;;;4958234;29;20207;-85
2022/03/09 04:03:22;;;;;;;31.88;21.10;;;1.20;99.90;;;;;;4954275;29;20208;-87
2022/03/09 04:06:09;;;;;;;32.17;21.88;;;1.10;99.90;;;;;;4957560;28;20190;-86
2022/03/09 04:08:43;;;;;;;34.58;21.92;;;2.50;99.90;;;;;;4960732;28;20215;-87
2022/03/09 04:11:49;;;;;;;31.63;20.70;;;0.90;99.90;;;;;;4960961;28;20176;-85
2022/03/09 04:15:00;;;;;;;33.28;22.67;;;0.90;99.90;;;;;;4953806;28;20231;-85
2022/03/09 04:18:08;;;;;;;27.77;21.80;;;0.90;99.90;;;;;;4948134;29;20222;-85
2022/03/09 04:20:59;;;;;;;29.58;19.95;;;2.30;99.90;;;;;;4948803;29;20210;-85
2022/03/09 04:23:39;;;;;;;30.92;20.52;;;0.80;99.90;;;;;;4948397;29;20238;-86
2022/03/09 04:26:20;;;;;;;23.25;18.60;;;0.90;99.90;;;;;;4948888;29;20234;-86
2022/03/09 04:28:59;;;;;;;24.55;19.08;;;;;;;;;;4949134;29;20282;-86
2022/03/09 04:31:35;;;;;;;30.95;19.98;;;0.90;99.90;;;;;;4953089;28;20206;-86
2022/03/09 04:36:54;;;;;;;26.83;18.25;;;0.90;99.90;;;;;;4952701;28;20219;-87
2022/03/09 04:39:28;;;;;;;31.75;18.35;;;0.90;99.90;;;;;;4950976;29;20238;-85
2022/03/09 04:42:15;;;;;;;25.20;18.42;;;1.00;99.90;;;;;;4948544;29;20238;-87
2022/03/09 04:44:57;;;;;;;25.60;19.58;;;0.90;99.90;;;;;;4951289;29;20219;-85
2022/03/09 04:47:38;;;;;;;23.95;17.50;;;1.00;99.90;;;;;;4956980;29;20207;-86
2022/03/09 04:50:22;;;;;;;25.63;19.05;;;1.00;99.90;;;;;;4957340;29;20295;-86
2022/03/09 04:55:55;;;;;;;21.20;16.80;;;1.10;99.90;;;;;;4952804;29;20215;-87
2022/03/09 04:58:31;;;;;;;28.20;15.85;;;;;;;;;;4958620;29;20199;-86
2022/03/09 05:01:18;;;;;;;21.42;15.27;;;1.30;99.90;;;;;;4955018;29;20203;-86
2022/03/09 05:04:10;;;;;;;23.92;15.38;;;1.40;99.90;;;;;;4938012;29;20226;-86
2022/03/09 05:07:09;;;;;;;;;;;;;;;;;;;;;
2022/03/09 05:09:51;;;;;;;21.67;16.60;;;1.50;99.90;;;;;;4951073;29;20657;-86
2022/03/09 05:15:31;;;;;;;22.48;16.00;;;1.30;99.90;;;;;;4945420;29;20702;-87
2022/03/09 05:18:13;;;;;;;27.52;15.80;;;1.10;99.90;;;;;;4943496;29;20213;-87
2022/03/09 05:23:56;;;;;;;28.42;17.00;;;1.00;99.90;;;;;;4899784;29;20286;-87
2022/03/09 05:26:25;;;;;;;19.08;16.70;;;1.00;99.90;;;;;;4948072;29;20205;-87
2022/03/09 05:29:11;;;;;;;20.55;15.35;;;1.10;99.90;;;;;;4947811;29;20234;-87
2022/03/09 05:31:40;;;;;;;17.83;14.93;;;1.10;99.90;;;;;;4947962;29;20590;-88
2022/03/09 05:34:10;;;;;;;21.73;16.02;;;1.10;99.90;;;;;;4948072;29;20234;-87
2022/03/09 05:36:46;;;;;;;17.33;15.48;;;1.10;99.90;;;;;;4951500;29;20214;-87
2022/03/09 05:39:14;;;;;;;19.48;14.98;;;1.20;99.90;;;;;;4950482;29;20187;-86
2022/03/09 05:41:44;;;;;;;24.27;16.27;;;;;;;;;;4952209;29;20566;-87
2022/03/09 05:47:03;;;;;;;18.23;15.57;;;;;;;;;;4951293;29;20214;-87
2022/03/09 05:49:33;;;;;;;36.85;27.63;;;1.20;99.90;;;;;;4959455;28;20211;-87
2022/03/09 05:52:19;;;;;;;25.33;16.98;;;1.30;99.90;;;;;;4963284;28;20194;-86
2022/03/09 05:54:47;;;;;;;20.35;14.52;;;1.30;99.90;;;;;;4955857;28;20227;-88
2022/03/09 05:57:14;;;;;;;20.90;14.85;;;1.30;99.90;;;;;;4945636;29;20225;-87
2022/03/09 05:59:45;;;;;;;20.73;16.25;;;;;;;;;;4944493;29;20199;-85
2022/03/09 06:02:12;;;;;;;23.27;14.55;;;;;;;;;;4944244;29;20207;-88
2022/03/09 06:04:38;;;;;;;22.83;16.20;;;1.50;99.90;;;;;;4946836;29;20290;-88
2022/03/09 06:07:09;;;;;;;24.92;16.58;;;;;;;;;;4960453;28;20207;-87
2022/03/09 06:09:36;;;;;;;22.17;15.15;;;;;;;;;;4953829;29;20207;-88
2022/03/09 06:12:05;;;;;;;26.20;15.32;;;1.50;99.90;;;;;;4943008;29;20338;-87
2022/03/09 06:14:32;;;;;;;24.60;15.93;;;1.50;99.90;;;;;;4943370;29;20223;-88
2022/03/09 06:16:59;;;;;;;18.15;13.98;;;;;;;;;;4944325;29;20304;-88
2022/03/09 06:19:25;;;;;;;21.33;15.15;;;1.70;99.90;;;;;;4942958;29;20222;-89
2022/03/09 06:21:52;;;;;;;23.98;14.20;;;;;;;;;;4944913;29;20211;-88
2022/03/09 06:24:19;;;;;;;20.23;17.08;;;;;;;;;;4948769;29;20223;-88
2022/03/09 06:26:46;;;;;;;27.33;17.05;;;;;;;;;;4946542;29;20709;-88
2022/03/09 06:29:15;;;;;;;20.73;15.05;;;1.90;99.90;;;;;;4962605;28;20223;-89
2022/03/09 06:31:43;;;;;;;17.67;15.18;;;2.20;99.90;;;;;;4962605;28;20227;-89
2022/03/09 06:34:10;;;;;;;19.25;14.43;;;;;;;;;;4949118;29;20229;-88
2022/03/09 06:36:36;;;;;;;22.48;15.32;;;2.10;99.90;;;;;;4943332;29;20211;-88
2022/03/09 06:39:03;;;;;;;20.38;13.27;;;2.30;99.90;;;;;;4944015;29;20203;-88
2022/03/09 06:41:30;;;;;;;18.92;13.88;;;2.10;99.90;;;;;;4942740;29;20227;-88
2022/03/09 06:43:57;;;;;;;24.40;16.00;;;2.50;99.90;;;;;;4943258;29;20223;-88
2022/03/09 06:46:24;;;;;;;18.60;15.57;;;2.40;99.90;;;;;;4942323;29;20257;-89
2022/03/09 06:48:51;;;;;;;18.58;14.40;;;2.70;99.90;;;;;;4941400;29;20238;-88
2022/03/09 06:51:18;;;;;;;18.63;15.45;;;2.50;99.90;;;;;;4941668;29;20322;-88
2022/03/09 06:53:45;;;;;;;20.58;14.75;;;2.50;99.90;;;;;;4941974;29;20272;-88
2022/03/09 06:56:12;;;;;;;25.23;17.67;;;2.50;99.90;;;;;;4942706;29;20311;-88
2022/03/09 06:58:39;;;;;;;16.83;13.13;;;2.60;99.90;;;;;;4955957;29;20218;-88
2022/03/09 07:01:06;;;;;;;19.73;14.50;;;2.80;99.90;;;;;;4960283;29;20210;-88
2022/03/09 07:03:34;;;;;;;20.10;14.77;;;3.10;99.90;;;;;;4961246;28;20314;-89
2022/03/09 07:06:01;;;;;;;20.00;13.98;;;2.90;99.90;;;;;;4957715;29;20221;-88
2022/03/09 07:08:28;;;;;;;19.95;13.85;;;3.10;99.90;;;;;;4957740;29;20207;-87
2022/03/09 07:10:54;;;;;;;19.33;14.50;;;3.70;99.90;;;;;;4957485;29;20231;-87
2022/03/09 07:13:21;;;;;;;21.30;16.02;;;;;;;;;;4957938;29;20215;-87
2022/03/09 07:15:48;;;;;;;22.95;16.25;;;3.40;99.90;;;;;;4952339;29;20242;-87
2022/03/09 07:18:15;;;;;;;22.00;15.63;;;3.50;99.90;;;;;;4949065;29;20207;-87
2022/03/09 07:20:43;;;;;;;17.55;14.60;;;3.80;99.90;;;;;;4945103;29;20203;-87
2022/03/09 07:23:10;;;;;;;22.15;14.98;;;3.50;99.90;;;;;;4944160;29;20303;-87
2022/03/09 07:25:36;;;;;;;20.73;15.18;;;3.80;99.90;;;;;;4944169;29;20211;-88
2022/03/09 07:28:04;;;;;;;21.27;15.25;;;3.90;99.90;;;;;;4948019;29;20226;-88
2022/03/09 07:30:31;;;;;;;20.95;15.93;;;3.90;99.90;;;;;;4943217;29;20227;-88
2022/03/09 07:32:58;;;;;;;21.30;16.88;;;4.00;99.90;;;;;;4942418;29;20238;-88
2022/03/09 07:35:24;;;;;;;27.35;16.88;;;4.00;1.00;;;;;;4943850;29;20257;-88
2022/03/09 07:37:52;;;;;;;22.25;17.33;;;4.00;99.90;;;;;;4943753;29;20255;-86
2022/03/09 07:40:25;;;;;;;28.45;18.30;;;4.30;99.90;;;;;;4944879;29;20203;-88
2022/03/09 07:42:52;;;;;;;28.08;20.23;;;4.00;99.90;;;;;;4950933;29;20269;-88
2022/03/09 07:45:19;;;;;;;31.23;21.15;;;;;;;;;;4946267;29;20211;-87
2022/03/09 07:47:49;;;;;;;26.52;19.10;;;4.30;80.00;;;;;;4944129;29;20212;-88
2022/03/09 07:50:16;;;;;;;24.58;18.27;;;3.10;99.90;;;;;;4942101;29;20207;-88
2022/03/09 07:52:46;;;;;;;36.80;22.15;;;4.50;99.90;;;;;;4942546;29;20293;-88
2022/03/09 07:55:14;;;;;;;26.60;18.42;;;4.20;99.90;;;;;;4962049;23;20242;-86
2022/03/09 07:57:40;;;;;;;18.80;16.50;;;4.60;99.90;;;;;;4946866;29;20227;-87
2022/03/09 08:00:09;;;;;;;21.27;17.17;;;4.70;99.90;;;;;;4945189;29;20215;-87
2022/03/09 08:02:35;;;;;;;25.50;19.02;;;4.80;99.90;;;;;;4945429;29;20207;-86
2022/03/09 08:05:03;;;;;;;19.42;14.65;;;;;;;;;;4944585;29;20226;-86
2022/03/09 08:07:30;;;;;;;20.20;17.25;;;4.90;99.90;;;;;;4944164;29;20266;-86
2022/03/09 08:09:57;;;;;;;23.40;17.13;;;5.10;99.90;;;;;;4950271;29;20229;-87
2022/03/09 08:12:27;;;;;;;19.73;14.88;;;5.50;99.90;;;;;;4944011;29;20266;-87
2022/03/09 08:14:53;;;;;;;20.90;14.38;;;5.30;99.90;;;;;;4943811;29;20720;-87
2022/03/09 08:17:21;;;;;;;15.02;13.30;;;5.50;99.90;;;;;;4943105;29;20598;-87
2022/03/09 08:19:50;;;;;;;19.00;15.77;;;5.60;99.90;;;;;;4942931;29;20288;-86
2022/03/09 08:22:31;;;;;;;17.17;14.07;;;5.70;99.90;;;;;;4942530;29;20211;-87
2022/03/09 08:24:58;;;;;;;17.75;13.98;;;;;;;;;;4942369;29;20231;-86
2022/03/09 08:27:27;;;;;;;16.52;14.32;;;5.90;99.90;;;;;;4943844;29;20241;-86
2022/03/09 08:29:53;;;;;;;17.52;13.00;;;5.80;99.90;;;;;;4943135;29;20230;-87
2022/03/09 08:32:21;;;;;;;15.13;12.55;;;6.10;99.90;;;;;;4941953;29;20233;-86
2022/03/09 08:34:48;;;;;;;15.82;12.40;;;6.20;99.90;;;;;;4943870;29;20227;-88
2022/03/09 08:37:14;;;;;;;15.35;11.65;;;6.40;99.90;;;;;;4945243;29;20207;-87
2022/03/09 08:39:43;;;;;;;16.20;12.23;;;6.50;99.90;;;;;;4956852;28;20187;-86
2022/03/09 08:42:10;;;;;;;16.35;11.73;;;6.60;99.90;;;;;;4956945;28;20198;-86
2022/03/09 08:44:38;;;;;;;14.52;12.00;;;6.60;99.90;;;;;;4956806;29;20297;-86
2022/03/09 08:47:06;;;;;;;14.55;11.45;;;6.70;99.90;;;;;;4944613;29;20318;-86
2022/03/09 08:49:33;;;;;;;12.88;10.80;;;6.80;99.90;;;;;;4943299;29;20218;-87
2022/03/09 08:52:00;;;;;;;13.45;11.93;;;6.80;99.90;;;;;;4941095;29;20235;-86
2022/03/09 08:54:27;;;;;;;13.40;11.23;;;6.90;99.90;;;;;;4942081;29;20235;-87
2022/03/09 08:56:53;;;;;;;14.90;9.60;;;7.00;1.00;;;;;;4941460;29;20270;-86
2022/03/09 08:59:20;;;;;;;17.20;12.95;;;7.10;99.90;;;;;;4941447;29;20203;-86
2022/03/09 09:01:48;;;;;;;16.92;11.98;;;7.20;99.90;;;;;;4944568;29;20262;-85
2022/03/09 09:04:16;;;;;;;18.48;12.93;;;7.20;99.90;;;;;;4945136;29;20564;-87
2022/03/09 09:06:43;;;;;;;11.52;9.57;;;7.30;99.90;;;;;;4953736;29;20211;-87
2022/03/09 09:09:10;;;;;;;13.65;8.25;;;7.40;99.90;;;;;;4946093;29;20211;-86
2022/03/09 09:11:37;;;;;;;12.52;8.35;;;7.40;99.90;;;;;;4941490;29;20231;-87
2022/03/09 09:14:04;;;;;;;8.30;6.50;;;7.60;99.90;;;;;;4942197;29;20674;-87
2022/03/09 09:16:31;;;;;;;8.93;7.18;;;7.60;99.90;;;;;;4941951;29;20478;-87
2022/03/09 09:18:59;;;;;;;12.77;6.10;;;7.60;99.90;;;;;;4950550;28;20207;-86
2022/03/09 09:21:25;;;;;;;18.73;9.20;;;7.60;99.90;;;;;;4960206;28;20203;-86
2022/03/09 09:24:02;;;;;;;9.87;6.33;;;7.80;99.90;;;;;;4959920;28;20467;-85
2022/03/09 09:26:29;;;;;;;13.20;6.53;;;7.60;99.90;;;;;;4959979;28;20413;-85
2022/03/09 09:28:56;;;;;;;9.75;6.57;;;7.70;99.90;;;;;;4959375;28;20434;-86
2022/03/09 09:31:22;;;;;;;10.50;7.38;;;6.40;99.90;;;;;;4960022;28;20217;-87
2022/03/09 09:33:49;;;;;;;13.03;7.57;;;;;;;;;;4959543;28;20242;-86
2022/03/09 09:36:18;;;;;;;13.67;7.00;;;7.70;99.90;;;;;;4953402;29;20447;-87
2022/03/09 09:38:44;;;;;;;10.10;6.70;;;7.90;99.90;;;;;;4945292;29;20478;-87
2022/03/09 09:41:15;;;;;;;9.17;5.87;;;8.00;99.90;;;;;;4942559;29;20235;-86
2022/03/09 09:43:42;;;;;;;7.47;5.50;;;8.10;99.90;;;;;;4944709;29;20538;-87
2022/03/09 09:46:11;;;;;;;6.53;5.83;;;8.20;99.90;;;;;;4945267;29;20446;-87
2022/03/09 09:48:38;;;;;;;7.50;5.22;;;8.30;99.90;;;;;;4945200;29;20446;-86
2022/03/09 09:51:05;;;;;;;7.23;4.43;;;8.40;99.90;;;;;;4949008;29;20255;-86
2022/03/09 09:53:35;;;;;;;7.97;4.93;;;8.40;99.90;;;;;;4958813;29;20437;-86
2022/03/09 09:56:03;;;;;;;9.67;5.80;;;8.50;99.90;;;;;;4960230;28;20238;-86
2022/03/09 09:58:30;;;;;;;4.83;4.40;;;8.50;99.90;;;;;;4960001;28;20443;-86
2022/03/09 10:00:57;;;;;;;6.50;5.00;;;8.40;99.90;;;;;;4959798;28;20467;-87
2022/03/09 10:03:24;;;;;;;9.57;5.90;;;7.00;99.90;;;;;;4959536;28;20444;-87
2022/03/09 10:05:51;;;;;;;10.20;6.40;;;8.40;99.90;;;;;;4957257;28;20506;-87
2022/03/09 10:08:19;;;;;;;9.60;5.90;;;8.40;99.90;;;;;;4949767;29;20819;-87
2022/03/09 10:10:55;;;;;;;14.60;7.17;;;8.50;99.90;;;;;;4958229;29;20511;-87
2022/03/09 10:13:26;;;;;;;10.50;7.90;;;8.40;99.90;;;;;;4957679;29;20419;-87
2022/03/09 10:16:15;;;;;;;10.17;7.23;;;8.50;99.90;;;;;;4954342;29;20490;-87
2022/03/09 10:18:48;;;;;;;13.93;8.40;;;8.60;99.90;;;;;;4951052;29;20420;-87
2022/03/09 10:21:17;;;;;;;15.07;8.97;;;8.60;99.90;;;;;;4957442;29;20517;-86
2022/03/09 10:23:58;;;;;;;13.13;8.60;;;8.70;99.90;;;;;;4953938;29;20475;-87
2022/03/09 10:26:28;;;;;;;13.53;9.27;;;8.50;99.90;;;;;;4950187;29;20742;-87
2022/03/09 10:29:00;;;;;;;10.87;8.03;;;8.60;99.90;;;;;;4946232;29;20520;-86
2022/03/09 10:31:37;;;;;;;7.70;6.90;;;8.70;99.90;;;;;;4945030;29;20482;-87
2022/03/09 10:34:06;;;;;;;11.25;7.82;;;8.70;99.90;;;;;;4945295;29;20457;-86
2022/03/09 10:36:35;;;;;;;19.23;9.27;;;8.80;99.90;;;;;;4946195;29;20235;-86
2022/03/09 10:39:15;;;;;;;14.23;8.43;;;8.80;99.90;;;;;;4944438;29;20889;-86
2022/03/09 10:41:44;;;;;;;12.60;8.33;;;8.90;99.90;;;;;;4945144;29;20427;-87
2022/03/09 10:44:11;;;;;;;14.30;8.90;;;9.00;99.90;;;;;;4955976;28;20479;-87
2022/03/09 10:46:46;;;;;;;11.10;8.30;;;9.00;99.90;;;;;;4953610;29;20413;-86
2022/03/09 10:49:14;;;;;;;12.30;8.57;;;8.90;99.90;;;;;;4951596;29;20449;-86
2022/03/09 10:51:42;;;;;;;13.43;8.97;;;8.90;99.90;;;;;;4944740;29;20873;-86
2022/03/09 10:54:11;;;;;;;10.87;8.30;;;9.00;99.90;;;;;;4945128;29;20507;-87
2022/03/09 10:56:40;;;;;;;15.13;8.60;;;9.00;99.90;;;;;;4945113;29;20429;-87
2022/03/09 10:59:14;;;;;;;11.43;7.83;;;9.00;99.90;;;;;;4945121;29;20536;-85
2022/03/09 11:01:41;;;;;;;10.73;7.70;;;9.10;99.90;;;;;;4945008;29;20436;-87
2022/03/09 11:04:13;;;;;;;7.60;6.13;;;9.30;99.90;;;;;;4945515;29;20504;-87
2022/03/09 11:06:46;;;;;;;12.03;7.70;;;9.30;99.90;;;;;;4945734;29;20420;-86
2022/03/09 11:09:15;;;;;;;10.30;6.43;;;9.30;99.90;;;;;;4955519;29;20529;-87
2022/03/09 11:11:45;;;;;;;9.97;7.40;;;9.00;99.90;;;;;;4958806;29;20504;-87
2022/03/09 11:14:14;;;;;;;14.80;7.40;;;9.30;99.90;;;;;;4959401;29;20468;-86
2022/03/09 11:16:42;;;;;;;13.00;7.20;;;9.30;99.90;;;;;;4953961;29;20891;-86
2022/03/09 11:19:09;;;;;;;8.00;6.70;;;9.30;99.90;;;;;;4948251;29;20440;-86
2022/03/09 11:21:37;;;;;;;7.70;5.67;;;9.40;99.90;;;;;;4950026;29;20483;-85
2022/03/09 11:24:07;;;;;;;11.93;7.10;;;9.40;99.90;;;;;;4946999;29;20501;-87
2022/03/09 11:26:36;;;;;;;8.33;6.30;;;9.50;99.90;;;;;;4954604;29;20474;-87
2022/03/09 11:29:05;;;;;;;8.27;5.83;;;9.60;99.90;;;;;;4960288;28;20473;-85
2022/03/09 11:31:51;;;;;;;11.33;6.57;;;9.50;99.90;;;;;;4960822;28;20479;-85
2022/03/09 11:34:38;;;;;;;8.87;5.80;;;9.50;99.90;;;;;;4962348;28;20438;-85
2022/03/09 11:37:08;;;;;;;10.77;6.93;;;9.50;99.90;;;;;;4962193;28;20466;-86
2022/03/09 11:39:36;;;;;;;16.37;9.87;;;9.60;99.90;;;;;;4961602;28;20412;-86
2022/03/09 11:42:25;;;;;;;11.57;6.10;;;9.50;99.90;;;;;;4956361;28;20426;-87
2022/03/09 11:44:54;;;;;;;11.47;6.23;;;9.80;99.90;;;;;;4943329;29;20813;-87
2022/03/09 11:47:22;;;;;;;7.73;5.60;;;9.20;99.90;;;;;;4953469;29;20468;-86
2022/03/09 11:50:07;;;;;;;7.00;5.67;;;9.90;99.90;;;;;;4961220;28;20456;-86
2022/03/09 11:52:55;;;;;;;10.20;6.27;;;10.00;99.90;;;;;;4947779;28;20532;-87
2022/03/09 11:55:22;;;;;;;8.67;5.50;;;10.00;99.90;;;;;;4942786;29;20515;-86
2022/03/09 11:58:04;;;;;;;6.30;5.37;;;9.90;99.90;;;;;;4945785;29;20428;-87
2022/03/09 12:00:32;;;;;;;7.67;5.97;;;9.90;99.90;;;;;;4945570;29;20460;-86
2022/03/09 12:03:01;;;;;;;10.33;6.20;;;10.00;99.90;;;;;;4944538;29;20518;-86
2022/03/09 12:05:36;;;;;;;9.37;5.80;;;10.00;99.90;;;;;;4943576;29;20914;-87
2022/03/09 12:08:06;;;;;;;8.13;6.10;;;9.80;99.90;;;;;;4944799;29;20430;-87
2022/03/09 12:10:51;;;;;;;10.87;7.13;;;9.90;99.90;;;;;;4952691;29;20483;-86
2022/03/09 12:13:33;;;;;;;7.50;5.33;;;10.00;99.90;;;;;;4949540;29;20488;-88
2022/03/09 12:16:17;;;;;;;8.80;6.10;;;10.00;99.90;;;;;;4943983;29;20452;-86
2022/03/09 12:19:05;;;;;;;8.07;7.00;;;10.00;99.90;;;;;;4942808;29;20423;-87
2022/03/09 12:22:07;;;;;;;9.77;6.70;;;10.20;99.90;;;;;;4941779;29;20418;-87
2022/03/09 12:24:36;;;;;;;7.47;5.73;;;10.00;99.90;;;;;;4941670;29;21026;-87
2022/03/09 12:27:21;;;;;;;7.80;6.17;;;10.00;99.90;;;;;;4947126;29;20484;-86
2022/03/09 12:29:48;;;;;;;8.73;5.80;;;10.10;99.90;;;;;;4947137;29;20420;-86
2022/03/09 12:32:16;;;;;;;8.17;7.00;;;9.70;99.90;;;;;;4945008;29;20488;-86
2022/03/09 12:34:46;;;;;;;5.90;5.30;;;10.20;99.90;;;;;;4958793;29;20480;-86
2022/03/09 12:37:15;;;;;;;7.27;6.37;;;10.00;99.90;;;;;;4956240;29;20440;-87
2022/03/09 12:39:49;;;;;;;9.87;6.77;;;9.70;99.90;;;;;;4956278;29;20480;-86
2022/03/09 12:42:17;;;;;;;11.43;6.40;;;10.30;99.90;;;;;;4949036;29;20466;-87
2022/03/09 12:44:43;;;;;;;8.00;6.13;;;10.20;99.90;;;;;;4945011;29;20473;-87
2022/03/09 12:47:10;;;;;;;9.07;7.93;;;10.30;99.90;;;;;;4943970;29;20446;-87
2022/03/09 12:49:39;;;;;;;8.73;6.40;;;10.20;99.90;;;;;;4943611;29;20455;-87
2022/03/09 12:52:10;;;;;;;10.30;6.87;;;10.20;99.90;;;;;;4943323;29;20835;-87
2022/03/09 12:54:42;;;;;;;10.83;7.50;;;10.40;99.90;;;;;;4959245;28;20437;-86
2022/03/09 12:57:12;;;;;;;14.80;6.33;;;10.50;99.90;;;;;;4950346;28;20512;-87
2022/03/09 12:59:40;;;;;;;10.00;7.07;;;10.60;99.90;;;;;;4948568;29;20449;-87
2022/03/09 13:02:07;;;;;;;9.37;6.40;;;9.90;99.90;;;;;;4954953;29;20424;-87
2022/03/09 13:04:34;;;;;;;7.20;5.33;;;10.60;99.90;;;;;;4957814;29;20450;-86
2022/03/09 13:07:15;;;;;;;8.70;6.60;;;10.50;99.90;;;;;;4959183;28;20418;-85
2022/03/09 13:09:44;;;;;;;8.73;5.50;;;10.20;99.90;;;;;;4960541;28;20459;-86
2022/03/09 13:12:12;;;;;;;8.80;6.17;;;10.70;99.90;;;;;;4960375;28;20487;-86
2022/03/09 13:14:42;;;;;;;6.57;5.40;;;10.50;99.80;;;;;;4960287;28;20469;-85
2022/03/09 13:17:09;;;;;;;9.27;6.40;;;10.50;99.90;;;;;;4956238;28;20465;-87
2022/03/09 13:19:37;;;;;;;6.20;5.27;;;10.70;99.90;;;;;;4952475;28;20436;-86
2022/03/09 13:22:04;;;;;;;11.40;7.50;;;10.60;99.90;;;;;;4953788;28;20474;-87
2022/03/09 13:24:33;;;;;;;9.13;6.90;;;10.10;99.90;;;;;;4942159;29;20459;-88
2022/03/09 13:26:59;;;;;;;5.73;5.10;;;10.70;99.90;;;;;;4941668;29;20456;-88
2022/03/09 13:29:26;;;;;;;8.50;6.43;;;10.40;99.90;;;;;;4940709;29;20825;-87
2022/03/09 13:31:57;;;;;;;11.43;7.57;;;10.70;99.90;;;;;;4941224;29;20482;-87